createdAt,value
2016-07-05T00:00:50.161Z,81.85
2016-07-05T00:01:50.125Z,81.46
2016-07-05T00:02:50.098Z,81.85
2016-07-05T00:03:50.247Z,81.27
2016-07-05T00:04:50.166Z,81.75
2016-07-05T00:05:50.217Z,82.14
2016-07-05T00:06:49.646Z,81.75
2016-07-05T00:07:50.248Z,82.04
2016-07-05T00:08:50.235Z,81.46
2016-07-05T00:09:50.337Z,81.66
2016-07-05T00:10:50.058Z,81.66
2016-07-05T00:11:50.335Z,81.85
2016-07-05T00:12:50.351Z,81.56
2016-07-05T00:13:50.096Z,81.85
2016-07-05T00:14:50.386Z,81.75
2016-07-05T00:15:50.408Z,81.85
2016-07-05T00:16:50.242Z,81.75
2016-07-05T00:17:50.406Z,81.66
2016-07-05T00:18:50.504Z,81.95
2016-07-05T00:19:50.413Z,82.14
2016-07-05T00:20:50.456Z,82.42
2016-07-05T00:21:50.467Z,82.23
2016-07-05T00:22:50.058Z,82.23
2016-07-05T00:23:48.183Z,82.04
2016-07-05T00:24:50.577Z,82.14
2016-07-05T00:25:50.532Z,82.04
2016-07-05T00:26:50.262Z,81.95
2016-07-05T00:27:49.759Z,82.04
2016-07-05T00:28:46.420Z,82.62
2016-07-05T00:29:48.302Z,81.95
2016-07-05T00:30:49.886Z,82.04
2016-07-05T00:31:49.995Z,81.85
2016-07-05T00:32:48.723Z,81.95
2016-07-05T00:33:50.163Z,81.95
2016-07-05T00:34:50.026Z,81.95
2016-07-05T00:35:48.529Z,81.95
2016-07-05T00:36:45.708Z,82.04
2016-07-05T00:37:48.119Z,81.85
2016-07-05T00:38:45.041Z,81.85
2016-07-05T00:39:45.229Z,82.23
2016-07-05T00:40:45.029Z,82.32
2016-07-05T00:41:45.282Z,81.95
2016-07-05T00:42:45.471Z,82.04
2016-07-05T00:43:45.441Z,81.95
2016-07-05T00:44:45.371Z,82.46
2016-07-05T00:45:45.123Z,82.04
2016-07-05T00:46:45.146Z,82.27
2016-07-05T00:47:45.167Z,82.27
2016-07-05T00:48:45.658Z,81.75
2016-07-05T00:49:45.207Z,81.75
2016-07-05T00:50:45.722Z,81.89
2016-07-05T00:51:45.612Z,81.85
2016-07-05T00:52:45.882Z,81.7
2016-07-05T00:53:48.835Z,81.95
2016-07-05T00:55:06.621Z,81.85
2016-07-05T00:56:23.733Z,81.95
2016-07-05T00:57:05.105Z,82.27
2016-07-05T00:58:05.646Z,81.95
2016-07-05T00:59:06.273Z,81.95
2016-07-05T01:00:32.094Z,82.23
2016-07-05T01:02:05.104Z,82.9
2016-07-05T01:02:41.618Z,82.9
2016-07-05T01:03:52.168Z,83
2016-07-05T01:04:41.111Z,83.67
2016-07-05T01:05:41.134Z,83.76
2016-07-05T01:06:41.143Z,83.58
2016-07-05T01:07:41.164Z,83.48
2016-07-05T01:08:41.185Z,83.38
2016-07-05T01:09:41.196Z,83.38
2016-07-05T01:10:41.207Z,83.53
2016-07-05T01:11:41.233Z,83.67
2016-07-05T01:12:41.267Z,83.86
2016-07-05T01:13:41.287Z,84.25
2016-07-05T01:14:41.297Z,83.86
2016-07-05T01:15:41.313Z,84.15
2016-07-05T01:16:41.344Z,84.3
2016-07-05T01:17:41.356Z,84.15
2016-07-05T01:18:41.377Z,84.2
2016-07-05T01:19:41.404Z,83.72
2016-07-05T01:20:41.422Z,83.76
2016-07-05T01:21:41.438Z,83.95
2016-07-05T01:22:41.450Z,83.95
2016-07-05T01:23:41.475Z,83.48
2016-07-05T01:24:41.493Z,83.58
2016-07-05T01:25:41.509Z,83.48
2016-07-05T01:26:41.529Z,83.38
2016-07-05T01:27:41.550Z,83.38
2016-07-05T01:28:41.568Z,83.48
2016-07-05T01:29:41.590Z,83.38
2016-07-05T01:30:41.613Z,83.76
2016-07-05T01:31:41.620Z,83.09
2016-07-05T01:32:41.646Z,83
2016-07-05T01:33:41.660Z,83
2016-07-05T01:34:41.679Z,82.81
2016-07-05T01:35:41.698Z,83.19
2016-07-05T01:36:41.727Z,83
2016-07-05T01:37:41.745Z,83.58
2016-07-05T01:38:41.770Z,83.58
2016-07-05T01:39:41.782Z,83.48
2016-07-05T01:40:41.799Z,83.48
2016-07-05T01:41:41.822Z,83.58
2016-07-05T01:42:41.841Z,83.48
2016-07-05T01:43:41.868Z,83.76
2016-07-05T01:44:41.875Z,83.86
2016-07-05T01:45:41.888Z,83.76
2016-07-05T01:46:41.922Z,83.76
2016-07-05T01:47:41.938Z,83.58
2016-07-05T01:48:41.965Z,83.33
2016-07-05T01:49:41.976Z,83.38
2016-07-05T01:50:41.998Z,83.38
2016-07-05T01:51:42.015Z,82.75
2016-07-05T01:52:42.040Z,82.94
2016-07-05T01:53:42.058Z,82.94
2016-07-05T01:54:42.075Z,82.85
2016-07-05T01:55:42.094Z,82.75
2016-07-05T01:56:42.117Z,82.75
2016-07-05T01:57:42.138Z,83.14
2016-07-05T01:58:42.143Z,82.27
2016-07-05T01:59:42.175Z,82.56
2016-07-05T02:00:42.374Z,82.65
2016-07-05T02:01:42.361Z,82.75
2016-07-05T02:02:42.341Z,82.65
2016-07-05T02:03:42.425Z,81.98
2016-07-05T02:04:42.448Z,81.98
2016-07-05T02:05:42.293Z,82.18
2016-07-05T02:06:42.305Z,82.27
2016-07-05T02:07:42.449Z,82.27
2016-07-05T02:08:42.406Z,82.37
2016-07-05T02:09:42.358Z,82.08
2016-07-05T02:10:42.395Z,81.98
2016-07-05T02:11:42.409Z,81.98
2016-07-05T02:12:42.422Z,82.08
2016-07-05T02:13:42.452Z,82.85
2016-07-05T02:14:42.460Z,82.75
2016-07-05T02:15:42.494Z,82.75
2016-07-05T02:16:42.501Z,82.75
2016-07-05T02:17:42.524Z,82.75
2016-07-05T02:18:42.556Z,82.75
2016-07-05T02:19:42.570Z,82.37
2016-07-05T02:20:42.586Z,82.56
2016-07-05T02:21:42.605Z,82.27
2016-07-05T02:22:42.626Z,82.85
2016-07-05T02:23:42.638Z,83.14
2016-07-05T02:24:42.668Z,82.94
2016-07-05T02:25:42.689Z,83.04
2016-07-05T02:26:42.698Z,83.23
2016-07-05T02:27:42.715Z,83.33
2016-07-05T02:28:42.731Z,83.04
2016-07-05T02:29:42.750Z,83.14
2016-07-05T02:30:42.776Z,83.52
2016-07-05T02:31:42.805Z,83.81
2016-07-05T02:32:42.817Z,83.42
2016-07-05T02:33:42.833Z,83.61
2016-07-05T02:34:42.858Z,83.14
2016-07-05T02:35:42.877Z,83.71
2016-07-05T02:36:42.901Z,83.42
2016-07-05T02:37:42.912Z,83.58
2016-07-05T02:38:42.935Z,83.52
2016-07-05T02:39:42.947Z,83.91
2016-07-05T02:40:42.973Z,83.91
2016-07-05T02:41:43.003Z,83.81
2016-07-05T02:42:43.017Z,84.09
2016-07-05T02:43:43.034Z,83.91
2016-07-05T02:44:43.062Z,84.09
2016-07-05T02:45:43.080Z,83.61
2016-07-05T02:46:43.102Z,84
2016-07-05T02:47:43.117Z,83.42
2016-07-05T02:48:43.129Z,83.71
2016-07-05T02:49:43.152Z,83.52
2016-07-05T02:50:43.175Z,83.95
2016-07-05T02:51:43.195Z,84.28
2016-07-05T02:52:43.218Z,84.19
2016-07-05T02:53:43.236Z,84
2016-07-05T02:54:43.257Z,84
2016-07-05T02:55:43.280Z,84
2016-07-05T02:56:43.286Z,84
2016-07-05T02:57:43.309Z,84.48
2016-07-05T02:58:43.333Z,84.28
2016-07-05T02:59:43.343Z,84
2016-07-05T03:00:43.367Z,84.28
2016-07-05T03:01:43.396Z,84.19
2016-07-05T03:02:43.413Z,84.28
2016-07-05T03:03:43.430Z,84.38
2016-07-05T03:04:43.459Z,84.28
2016-07-05T03:05:43.469Z,84.48
2016-07-05T03:06:43.488Z,85.15
2016-07-05T03:07:43.510Z,85.05
2016-07-05T03:08:43.517Z,85.25
2016-07-05T03:09:43.540Z,85.05
2016-07-05T03:10:43.565Z,85.05
2016-07-05T03:11:43.591Z,85.3
2016-07-05T03:12:43.624Z,85.58
2016-07-05T03:13:43.626Z,85.58
2016-07-05T03:14:43.649Z,85.44
2016-07-05T03:15:43.664Z,85.39
2016-07-05T03:16:43.682Z,85.92
2016-07-05T03:17:43.701Z,85.68
2016-07-05T03:18:43.730Z,85.63
2016-07-05T03:19:43.745Z,85.63
2016-07-05T03:20:43.768Z,85.44
2016-07-05T03:21:43.788Z,85.63
2016-07-05T03:22:43.801Z,85.44
2016-07-05T03:23:43.829Z,85.3
2016-07-05T03:24:43.834Z,85.44
2016-07-05T03:25:43.869Z,85.3
2016-07-05T03:26:43.879Z,85.34
2016-07-05T03:27:43.907Z,85.53
2016-07-05T03:28:43.922Z,85.34
2016-07-05T03:29:43.941Z,85.72
2016-07-05T03:30:43.961Z,85.92
2016-07-05T03:31:43.988Z,85.82
2016-07-05T03:32:44.001Z,85.82
2016-07-05T03:33:44.017Z,85.92
2016-07-05T03:34:44.035Z,85.82
2016-07-05T03:35:44.063Z,85.63
2016-07-05T03:36:44.074Z,85.63
2016-07-05T03:37:44.100Z,85.63
2016-07-05T03:38:44.116Z,85.72
2016-07-05T03:39:44.128Z,85.25
2016-07-05T03:40:44.148Z,85.82
2016-07-05T03:41:44.180Z,85.82
2016-07-05T03:42:44.197Z,85.53
2016-07-05T03:43:44.215Z,85.82
2016-07-05T03:44:44.235Z,85.82
2016-07-05T03:45:44.254Z,85.72
2016-07-05T03:46:44.274Z,85.72
2016-07-05T03:47:44.294Z,85.82
2016-07-05T03:48:44.320Z,86.01
2016-07-05T03:49:44.338Z,85.53
2016-07-05T03:50:44.364Z,85.82
2016-07-05T03:51:44.366Z,85.63
2016-07-05T03:52:44.392Z,85.34
2016-07-05T03:53:44.418Z,85.25
2016-07-05T03:54:44.435Z,85.15
2016-07-05T03:55:44.457Z,85.44
2016-07-05T03:56:44.470Z,85.53
2016-07-05T03:57:44.496Z,85.1
2016-07-05T03:58:44.521Z,85.19
2016-07-05T03:59:44.530Z,84.77
2016-07-05T04:00:44.541Z,84.81
2016-07-05T04:01:44.571Z,84.86
2016-07-05T04:02:44.589Z,84.77
2016-07-05T04:03:44.618Z,84.77
2016-07-05T04:04:44.632Z,85.05
2016-07-05T04:05:44.647Z,85.15
2016-07-05T04:06:44.675Z,85.1
2016-07-05T04:07:44.693Z,84.95
2016-07-05T04:08:44.712Z,85.19
2016-07-05T04:09:44.736Z,85
2016-07-05T04:10:44.744Z,85.19
2016-07-05T04:11:44.770Z,85.19
2016-07-05T04:12:44.777Z,85.1
2016-07-05T04:13:44.813Z,85.28
2016-07-05T04:14:44.835Z,85.1
2016-07-05T04:15:44.848Z,84.71
2016-07-05T04:16:44.868Z,84.33
2016-07-05T04:17:44.890Z,84.33
2016-07-05T04:18:44.911Z,84.33
2016-07-05T04:19:44.933Z,84.42
2016-07-05T04:20:44.955Z,84.04
2016-07-05T04:21:44.972Z,84.14
2016-07-05T04:22:44.996Z,84.52
2016-07-05T04:23:45.019Z,84.23
2016-07-05T04:24:45.030Z,84.23
2016-07-05T04:25:45.079Z,84.23
2016-07-05T04:26:45.083Z,84.23
2016-07-05T04:27:45.093Z,84.33
2016-07-05T04:28:45.114Z,84.23
2016-07-05T04:29:45.136Z,84.33
2016-07-05T04:30:45.197Z,84.23
2016-07-05T04:31:45.168Z,84.33
2016-07-05T04:32:45.192Z,83.98
2016-07-05T04:33:45.202Z,83.6
2016-07-05T04:34:45.233Z,83.98
2016-07-05T04:35:45.254Z,84.08
2016-07-05T04:36:45.261Z,84.18
2016-07-05T04:37:45.296Z,83.51
2016-07-05T04:38:45.318Z,83.51
2016-07-05T04:39:45.328Z,83.51
2016-07-05T04:40:45.348Z,83.7
2016-07-05T04:41:45.364Z,83.8
2016-07-05T04:42:45.391Z,83.51
2016-07-05T04:43:45.416Z,83.6
2016-07-05T04:44:45.433Z,83.89
2016-07-05T04:45:45.455Z,83.98
2016-07-05T04:46:45.478Z,83.89
2016-07-05T04:47:45.491Z,83.51
2016-07-05T04:48:45.508Z,83.8
2016-07-05T04:49:45.520Z,83.89
2016-07-05T04:50:45.548Z,83.41
2016-07-05T04:51:45.565Z,83.7
2016-07-05T04:52:45.587Z,83.98
2016-07-05T04:53:45.609Z,83.89
2016-07-05T04:54:45.617Z,83.93
2016-07-05T04:55:45.652Z,83.51
2016-07-05T04:56:45.671Z,83.89
2016-07-05T04:57:45.699Z,83.7
2016-07-05T04:58:45.707Z,83.93
2016-07-05T04:59:45.733Z,83.54
2016-07-05T05:00:45.748Z,83.45
2016-07-05T05:01:45.778Z,83.16
2016-07-05T05:02:45.794Z,82.68
2016-07-05T05:03:45.820Z,82.1
2016-07-05T05:04:45.834Z,82.2
2016-07-05T05:05:45.853Z,82.4
2016-07-05T05:06:45.871Z,81.63
2016-07-05T05:07:45.897Z,80.66
2016-07-05T05:08:45.915Z,80.61
2016-07-05T05:09:45.930Z,80.71
2016-07-05T05:10:45.953Z,80.22
2016-07-05T05:11:45.974Z,79.65
2016-07-05T05:12:45.997Z,78.69
2016-07-05T05:13:46.042Z,78.78
2016-07-05T05:14:46.044Z,78.21
2016-07-05T05:15:46.072Z,78.5
2016-07-05T05:16:46.080Z,78.5
2016-07-05T05:17:46.165Z,78.21
2016-07-05T05:18:46.169Z,78.11
2016-07-05T05:19:46.186Z,77.15
2016-07-05T05:20:46.184Z,77.34
2016-07-05T05:21:46.243Z,77.09
2016-07-05T05:22:46.200Z,76.9
2016-07-05T05:23:46.263Z,76.52
2016-07-05T05:24:46.248Z,75.56
2016-07-05T05:25:46.285Z,76.14
2016-07-05T05:26:46.302Z,75.84
2016-07-05T05:27:46.330Z,75.75
2016-07-05T05:28:46.326Z,75.56
2016-07-05T05:29:46.358Z,75.75
2016-07-05T05:30:46.363Z,75.46
2016-07-05T05:31:46.385Z,75.46
2016-07-05T05:32:46.414Z,75.02
2016-07-05T05:33:46.426Z,74.63
2016-07-05T05:34:46.450Z,75.02
2016-07-05T05:35:46.477Z,74.25
2016-07-05T05:36:46.482Z,74.44
2016-07-05T05:37:46.496Z,73.96
2016-07-05T05:38:46.546Z,73.96
2016-07-05T05:39:46.542Z,73.86
2016-07-05T05:40:46.566Z,74.29
2016-07-05T05:41:46.590Z,73.99
2016-07-05T05:42:46.612Z,73.99
2016-07-05T05:43:46.638Z,73.61
2016-07-05T05:44:46.655Z,72.36
2016-07-05T05:45:46.675Z,72.17
2016-07-05T05:46:46.700Z,73.13
2016-07-05T05:47:46.722Z,72.94
2016-07-05T05:48:46.731Z,72.65
2016-07-05T05:49:46.769Z,72.65
2016-07-05T05:50:46.788Z,72.45
2016-07-05T05:51:46.810Z,72.52
2016-07-05T05:52:46.825Z,71.4
2016-07-05T05:53:46.841Z,71.4
2016-07-05T05:54:46.871Z,71.11
2016-07-05T05:55:46.884Z,71.4
2016-07-05T05:56:46.914Z,71.2
2016-07-05T05:57:46.936Z,71.11
2016-07-05T05:58:46.955Z,71.2
2016-07-05T05:59:46.975Z,71.2
2016-07-05T06:00:46.987Z,71.3
2016-07-05T06:01:47.021Z,70.92
2016-07-05T06:02:47.042Z,70.82
2016-07-05T06:03:47.053Z,70.43
2016-07-05T06:04:47.080Z,69.6
2016-07-05T06:05:47.101Z,69.79
2016-07-05T06:06:47.120Z,69.7
2016-07-05T06:07:47.142Z,71.01
2016-07-05T06:08:47.163Z,71.04
2016-07-05T06:09:47.191Z,71.2
2016-07-05T06:10:47.207Z,70.86
2016-07-05T06:11:47.260Z,70.92
2016-07-05T06:12:47.265Z,71.11
2016-07-05T06:13:47.267Z,70.62
2016-07-05T06:14:47.287Z,70.92
2016-07-05T06:15:47.326Z,70.92
2016-07-05T06:16:47.365Z,70.15
2016-07-05T06:17:47.350Z,70.05
2016-07-05T06:18:47.375Z,71.3
2016-07-05T06:19:47.394Z,70.72
2016-07-05T06:20:47.421Z,70.43
2016-07-05T06:21:47.452Z,70.72
2016-07-05T06:22:47.469Z,71.4
2016-07-05T06:23:47.482Z,71.3
2016-07-05T06:24:47.506Z,71.01
2016-07-05T06:25:47.516Z,69.95
2016-07-05T06:26:47.541Z,71.4
2016-07-05T06:27:47.574Z,71.2
2016-07-05T06:28:47.581Z,71.01
2016-07-05T06:29:47.602Z,70.43
2016-07-05T06:30:47.623Z,70.53
2016-07-05T06:31:47.647Z,70.43
2016-07-05T06:32:47.668Z,69.85
2016-07-05T06:33:47.689Z,70.24
2016-07-05T06:34:47.710Z,69.67
2016-07-05T06:35:47.733Z,69.76
2016-07-05T06:36:47.752Z,69.38
2016-07-05T06:37:47.774Z,69.18
2016-07-05T06:38:47.798Z,68.7
2016-07-05T06:39:47.803Z,68.93
2016-07-05T06:40:47.831Z,68.06
2016-07-05T06:41:47.843Z,69.22
2016-07-05T06:42:47.870Z,69.22
2016-07-05T06:43:47.898Z,69.41
2016-07-05T06:44:47.916Z,68.06
2016-07-05T06:45:47.936Z,68.44
2016-07-05T06:46:47.950Z,68.74
2016-07-05T06:47:47.982Z,68.93
2016-07-05T06:48:47.999Z,68.26
2016-07-05T06:49:48.021Z,69.02
2016-07-05T06:50:48.039Z,67.68
2016-07-05T06:51:48.062Z,67.77
2016-07-05T06:52:48.088Z,69.15
2016-07-05T06:53:48.106Z,68.44
2016-07-05T06:54:48.125Z,67.68
2016-07-05T06:55:48.160Z,68.06
2016-07-05T06:56:48.170Z,68.38
2016-07-05T06:57:48.196Z,68.16
2016-07-05T06:58:48.210Z,67.39
2016-07-05T06:59:48.240Z,68.26
2016-07-05T07:00:48.247Z,67.58
2016-07-05T07:01:48.275Z,67.19
2016-07-05T07:02:48.303Z,67
2016-07-05T07:03:48.337Z,67.81
2016-07-05T07:04:48.333Z,68.1
2016-07-05T07:05:48.372Z,67.9
2016-07-05T07:06:48.381Z,67.61
2016-07-05T07:07:48.478Z,66.85
2016-07-05T07:08:48.420Z,66.27
2016-07-05T07:09:48.493Z,67.52
2016-07-05T07:10:48.471Z,67.42
2016-07-05T07:11:48.565Z,67.23
2016-07-05T07:12:48.507Z,66.75
2016-07-05T07:13:48.575Z,66.46
2016-07-05T07:14:48.562Z,65.63
2016-07-05T07:15:48.596Z,66.39
2016-07-05T07:16:48.592Z,66.3
2016-07-05T07:17:48.683Z,66.2
2016-07-05T07:18:48.645Z,66.2
2016-07-05T07:19:48.671Z,66.69
2016-07-05T07:20:48.679Z,66.69
2016-07-05T07:21:48.698Z,67.07
2016-07-05T07:22:48.732Z,66.85
2016-07-05T07:23:48.744Z,68.19
2016-07-05T07:24:48.765Z,67.42
2016-07-05T07:25:48.787Z,69.15
2016-07-05T07:26:48.816Z,68.1
2016-07-05T07:27:48.829Z,67.71
2016-07-05T07:28:48.853Z,67.81
2016-07-05T07:29:48.884Z,66.75
2016-07-05T07:30:48.900Z,66.75
2016-07-05T07:31:48.930Z,67.23
2016-07-05T07:32:48.934Z,67.9
2016-07-05T07:33:48.966Z,67.9
2016-07-05T07:34:48.993Z,67.36
2016-07-05T07:35:49.008Z,67.36
2016-07-05T07:36:49.031Z,67.55
2016-07-05T07:37:49.060Z,67.07
2016-07-05T07:38:49.086Z,66.39
2016-07-05T07:39:49.106Z,67.36
2016-07-05T07:40:49.121Z,66.88
2016-07-05T07:41:49.154Z,66.97
2016-07-05T07:42:49.175Z,67.65
2016-07-05T07:43:49.189Z,67.46
2016-07-05T07:44:49.225Z,67.46
2016-07-05T07:45:49.244Z,66.88
2016-07-05T07:46:49.258Z,67.9
2016-07-05T07:47:49.280Z,66.36
2016-07-05T07:48:49.304Z,65.5
2016-07-05T07:49:49.322Z,67.36
2016-07-05T07:50:49.334Z,66.94
2016-07-05T07:51:49.370Z,66.2
2016-07-05T07:52:49.383Z,65.91
2016-07-05T07:53:49.418Z,66.97
2016-07-05T07:54:49.425Z,66.59
2016-07-05T07:55:49.449Z,66.01
2016-07-05T07:56:49.480Z,65.72
2016-07-05T07:57:49.502Z,65.43
2016-07-05T07:58:49.523Z,65.91
2016-07-05T07:59:49.544Z,66.11
2016-07-05T08:00:49.563Z,66.59
2016-07-05T08:01:49.577Z,66.01
2016-07-05T08:02:49.616Z,66.69
2016-07-05T08:03:49.635Z,66.39
2016-07-05T08:04:49.654Z,65.24
2016-07-05T08:05:49.673Z,65.81
2016-07-05T08:06:49.700Z,64.37
2016-07-05T08:07:49.716Z,63.7
2016-07-05T08:08:49.736Z,64.18
2016-07-05T08:09:49.760Z,63.31
2016-07-05T08:10:49.778Z,63.41
2016-07-05T08:11:49.804Z,63.21
2016-07-05T08:12:49.824Z,61.99
2016-07-05T08:13:49.843Z,61.61
2016-07-05T08:14:49.878Z,61.22
2016-07-05T08:15:49.896Z,61.93
2016-07-05T08:16:49.912Z,61.44
2016-07-05T08:17:49.932Z,61.16
2016-07-05T08:18:49.959Z,60.58
2016-07-05T08:19:49.978Z,60.58
2016-07-05T08:20:50.004Z,60.28
2016-07-05T08:21:50.029Z,60.48
2016-07-05T08:22:50.042Z,59.03
2016-07-05T08:23:50.073Z,59.32
2016-07-05T08:24:50.077Z,60.19
2016-07-05T08:25:50.118Z,59.8
2016-07-05T08:26:50.137Z,59.9
2016-07-05T08:27:50.156Z,59.13
2016-07-05T08:28:50.176Z,58.45
2016-07-05T08:29:50.201Z,58.94
2016-07-05T08:30:50.225Z,58.29
2016-07-05T08:31:50.248Z,57.39
2016-07-05T08:32:50.269Z,57.52
2016-07-05T08:33:50.293Z,57.42
2016-07-05T08:34:50.316Z,56.84
2016-07-05T08:35:50.336Z,56.26
2016-07-05T08:36:50.373Z,56
2016-07-05T08:37:50.400Z,55.42
2016-07-05T08:38:50.401Z,55.9
2016-07-05T08:39:50.427Z,55.9
2016-07-05T08:40:50.447Z,55.9
2016-07-05T08:41:50.502Z,55.71
2016-07-05T08:42:50.512Z,55.42
2016-07-05T08:43:50.529Z,55.07
2016-07-05T08:44:50.536Z,55.07
2016-07-05T08:45:50.570Z,55.07
2016-07-05T08:46:50.583Z,53.52
2016-07-05T08:47:50.611Z,53.13
2016-07-05T08:48:50.644Z,52.26
2016-07-05T08:49:50.648Z,52.26
2016-07-05T08:50:50.679Z,51.59
2016-07-05T08:51:50.716Z,51.97
2016-07-05T08:52:50.738Z,52.07
2016-07-05T08:53:50.757Z,52.07
2016-07-05T08:54:50.770Z,51.71
2016-07-05T08:55:50.793Z,51.81
2016-07-05T08:56:50.814Z,51.03
2016-07-05T08:57:50.834Z,51.1
2016-07-05T08:58:50.867Z,50.91
2016-07-05T08:59:50.879Z,51.23
2016-07-05T09:00:50.907Z,50.55
2016-07-05T09:01:50.931Z,50.55
2016-07-05T09:02:50.951Z,50.71
2016-07-05T09:03:50.974Z,50.62
2016-07-05T09:04:51.020Z,50.71
2016-07-05T09:05:51.030Z,51.2
2016-07-05T09:06:51.088Z,51.2
2016-07-05T09:07:51.079Z,51.56
2016-07-05T09:08:51.084Z,52.14
2016-07-05T09:09:51.129Z,52.81
2016-07-05T09:10:51.134Z,52.72
2016-07-05T09:11:51.155Z,52.89
2016-07-05T09:12:51.178Z,53.27
2016-07-05T09:13:51.201Z,53.47
2016-07-05T09:14:51.234Z,53.95
2016-07-05T09:15:51.256Z,54.5
2016-07-05T09:16:51.263Z,55.18
2016-07-05T09:17:51.304Z,55.36
2016-07-05T09:18:51.318Z,55.82
2016-07-05T09:19:51.333Z,56.01
2016-07-05T09:20:51.353Z,56.4
2016-07-05T09:21:51.381Z,56.49
2016-07-05T09:22:51.398Z,56.04
2016-07-05T09:23:51.423Z,55.27
2016-07-05T09:24:51.449Z,54.69
2016-07-05T09:25:51.462Z,54.4
2016-07-05T09:26:51.492Z,54.72
2016-07-05T09:27:51.509Z,53.95
2016-07-05T09:28:51.541Z,53.66
2016-07-05T09:29:51.563Z,53.08
2016-07-05T09:30:51.576Z,53.2
2016-07-05T09:31:51.609Z,53.11
2016-07-05T09:32:51.624Z,52.62
2016-07-05T09:33:51.659Z,52.75
2016-07-05T09:34:51.692Z,52.94
2016-07-05T09:35:51.700Z,52.55
2016-07-05T09:36:51.718Z,52.75
2016-07-05T09:37:51.731Z,52.07
2016-07-05T09:38:51.758Z,51.68
2016-07-05T09:39:51.788Z,51.49
2016-07-05T09:40:51.810Z,51.23
2016-07-05T09:41:51.816Z,50.55
2016-07-05T09:42:51.851Z,49.87
2016-07-05T09:43:51.878Z,50.45
2016-07-05T09:44:51.904Z,51.03
2016-07-05T09:45:51.922Z,51.03
2016-07-05T09:46:51.944Z,51.32
2016-07-05T09:47:51.965Z,52.55
2016-07-05T09:48:51.991Z,52.72
2016-07-05T09:49:51.993Z,53.01
2016-07-05T09:50:52.027Z,53.56
2016-07-05T09:51:52.059Z,53.85
2016-07-05T09:52:52.078Z,55.2
2016-07-05T09:53:52.098Z,55.46
2016-07-05T09:54:52.128Z,55.46
2016-07-05T09:55:52.145Z,55.66
2016-07-05T09:56:52.167Z,55.36
2016-07-05T09:57:52.185Z,54.88
2016-07-05T09:58:52.204Z,54.98
2016-07-05T09:59:52.227Z,55.18
2016-07-05T10:00:52.265Z,54.72
2016-07-05T10:01:52.285Z,53.85
2016-07-05T10:02:52.302Z,53.56
2016-07-05T10:03:52.329Z,52.81
2016-07-05T10:04:52.344Z,52.81
2016-07-05T10:05:52.368Z,52.45
2016-07-05T10:06:52.397Z,51.78
2016-07-05T10:07:52.413Z,51.87
2016-07-05T10:08:52.435Z,51.1
2016-07-05T10:09:52.454Z,50.74
2016-07-05T10:10:52.486Z,50.35
2016-07-05T10:11:52.510Z,51.42
2016-07-05T10:12:52.536Z,51.61
2016-07-05T10:13:52.556Z,51.32
2016-07-05T10:14:52.579Z,51.81
2016-07-05T10:15:52.600Z,50.38
2016-07-05T10:16:52.628Z,49.99
2016-07-05T10:17:52.650Z,50.09
2016-07-05T10:18:52.666Z,49.51
2016-07-05T10:19:52.687Z,50.38
2016-07-05T10:20:52.717Z,50.26
2016-07-05T10:21:52.742Z,50.35
2016-07-05T10:22:52.763Z,51.23
2016-07-05T10:23:52.781Z,50.35
2016-07-05T10:24:52.810Z,50.26
2016-07-05T10:25:52.826Z,50.26
2016-07-05T10:26:52.848Z,50.45
2016-07-05T10:27:52.873Z,50.84
2016-07-05T10:28:52.888Z,50.35
2016-07-05T10:29:52.920Z,50.55
2016-07-05T10:30:52.947Z,49.58
2016-07-05T10:31:52.972Z,49.39
2016-07-05T10:32:52.999Z,49.7
2016-07-05T10:33:53.010Z,49.6
2016-07-05T10:34:53.042Z,49.02
2016-07-05T10:35:53.058Z,48.76
2016-07-05T10:36:53.101Z,48.57
2016-07-05T10:37:53.106Z,49.15
2016-07-05T10:38:53.130Z,48.57
2016-07-05T10:39:53.153Z,48.27
2016-07-05T10:40:53.183Z,48.95
2016-07-05T10:41:53.215Z,48.93
2016-07-05T10:42:53.226Z,48.95
2016-07-05T10:43:53.248Z,48.95
2016-07-05T10:44:53.275Z,49.12
2016-07-05T10:45:53.295Z,49.7
2016-07-05T10:46:53.316Z,49.12
2016-07-05T10:47:53.340Z,48.93
2016-07-05T10:48:53.372Z,48.64
2016-07-05T10:49:53.388Z,48.93
2016-07-05T10:50:53.412Z,49.05
2016-07-05T10:51:53.439Z,48.95
2016-07-05T10:52:53.456Z,48.37
2016-07-05T10:53:53.485Z,48.27
2016-07-05T10:54:53.509Z,47.6
2016-07-05T10:55:53.535Z,47.43
2016-07-05T10:56:53.554Z,46.75
2016-07-05T10:57:53.581Z,46.66
2016-07-05T10:58:53.604Z,46.75
2016-07-05T10:59:53.627Z,47.06
2016-07-05T11:00:53.651Z,46.48
2016-07-05T11:01:53.665Z,46.39
2016-07-05T11:02:53.692Z,46.48
2016-07-05T11:03:53.722Z,46.67
2016-07-05T11:04:53.742Z,46.09
2016-07-05T11:05:53.768Z,46.39
2016-07-05T11:06:53.795Z,46.77
2016-07-05T11:07:53.820Z,46.19
2016-07-05T11:08:53.844Z,46.29
2016-07-05T11:09:53.866Z,46.19
2016-07-05T11:10:53.888Z,46.17
2016-07-05T11:11:53.911Z,46.46
2016-07-05T11:12:53.936Z,46.75
2016-07-05T11:13:53.956Z,46.94
2016-07-05T11:14:53.986Z,46.75
2016-07-05T11:15:54.006Z,47.04
2016-07-05T11:16:54.032Z,47.52
2016-07-05T11:17:54.047Z,48.37
2016-07-05T11:18:54.081Z,48.57
2016-07-05T11:19:54.103Z,48.76
2016-07-05T11:20:54.120Z,49.82
2016-07-05T11:21:54.143Z,49.8
2016-07-05T11:22:54.174Z,49.6
2016-07-05T11:23:54.193Z,50.38
2016-07-05T11:24:54.209Z,50.18
2016-07-05T11:25:54.237Z,50.45
2016-07-05T11:26:54.260Z,50.07
2016-07-05T11:27:54.270Z,49.22
2016-07-05T11:28:54.315Z,49.8
2016-07-05T11:29:54.336Z,49.54
2016-07-05T11:30:54.356Z,49.8
2016-07-05T11:31:54.378Z,49.82
2016-07-05T11:32:54.399Z,49.92
2016-07-05T11:33:54.430Z,49.63
2016-07-05T11:34:54.455Z,49.82
2016-07-05T11:35:54.472Z,49.54
2016-07-05T11:36:54.505Z,49.54
2016-07-05T11:37:54.509Z,49.82
2016-07-05T11:38:54.546Z,50.38
2016-07-05T11:39:54.570Z,50.6
2016-07-05T11:40:54.601Z,50.21
2016-07-05T11:41:54.618Z,49.34
2016-07-05T11:42:54.648Z,49.82
2016-07-05T11:43:54.670Z,49.75
2016-07-05T11:44:54.691Z,49.56
2016-07-05T11:45:54.710Z,49.75
2016-07-05T11:46:54.747Z,49.44
2016-07-05T11:47:54.767Z,50.79
2016-07-05T11:48:54.790Z,51.64
2016-07-05T11:49:54.813Z,51.71
2016-07-05T11:50:54.844Z,52.77
2016-07-05T11:51:54.857Z,53.45
2016-07-05T11:52:54.878Z,53.33
2016-07-05T11:53:54.906Z,53.71
2016-07-05T11:54:54.928Z,53.33
2016-07-05T11:55:54.957Z,52.87
2016-07-05T11:56:54.973Z,52.09
2016-07-05T11:57:54.992Z,52.48
2016-07-05T11:58:55.027Z,52.77
2016-07-05T11:59:55.043Z,52.67
2016-07-05T12:00:55.068Z,52.87
2016-07-05T12:01:55.076Z,52.77
2016-07-05T12:02:55.105Z,53.06
2016-07-05T12:03:55.130Z,52.97
2016-07-05T12:04:55.157Z,52.97
2016-07-05T12:05:55.173Z,52.97
2016-07-05T12:06:55.209Z,53.06
2016-07-05T12:07:55.229Z,54.03
2016-07-05T12:08:55.240Z,53.16
2016-07-05T12:09:55.268Z,53.06
2016-07-05T12:10:55.302Z,52.97
2016-07-05T12:11:55.321Z,52.99
2016-07-05T12:12:55.348Z,52.51
2016-07-05T12:13:55.367Z,51.73
2016-07-05T12:14:55.389Z,51.06
2016-07-05T12:15:55.410Z,51.83
2016-07-05T12:16:55.430Z,51.86
2016-07-05T12:17:55.468Z,51.37
2016-07-05T12:18:55.473Z,50.79
2016-07-05T12:19:55.499Z,51.15
2016-07-05T12:20:55.531Z,51.06
2016-07-05T12:21:55.554Z,51.83
2016-07-05T12:22:55.567Z,51.93
2016-07-05T12:23:55.600Z,52.51
2016-07-05T12:24:55.620Z,52.67
2016-07-05T12:25:55.648Z,52.77
2016-07-05T12:26:55.671Z,52.77
2016-07-05T12:27:55.690Z,52.97
2016-07-05T12:28:55.709Z,53.45
2016-07-05T12:29:55.731Z,54.1
2016-07-05T12:30:55.758Z,54
2016-07-05T12:31:55.777Z,54.77
2016-07-05T12:32:55.809Z,54.55
2016-07-05T12:33:55.827Z,54
2016-07-05T12:34:55.849Z,54.1
2016-07-05T12:35:55.870Z,54.39
2016-07-05T12:36:55.887Z,54.39
2016-07-05T12:37:55.916Z,54.87
2016-07-05T12:38:55.933Z,54
2016-07-05T12:39:55.962Z,53.81
2016-07-05T12:40:55.980Z,53.13
2016-07-05T12:41:56.008Z,53.55
2016-07-05T12:42:56.035Z,53.06
2016-07-05T12:43:56.058Z,51.83
2016-07-05T12:44:56.084Z,51.06
2016-07-05T12:45:56.108Z,50.4
2016-07-05T12:46:56.125Z,50.48
2016-07-05T12:47:56.155Z,51.06
2016-07-05T12:48:56.179Z,51.54
2016-07-05T12:49:56.197Z,52.31
2016-07-05T12:50:56.222Z,52.77
2016-07-05T12:51:56.240Z,52.67
2016-07-05T12:52:56.266Z,52.67
2016-07-05T12:53:56.288Z,52.58
2016-07-05T12:54:56.315Z,52.77
2016-07-05T12:55:56.338Z,52.97
2016-07-05T12:56:56.362Z,53.25
2016-07-05T12:57:56.381Z,53.83